sensor_id;sensor_type;location;lat;lon;timestamp;pressure;altitude;pressure_sealevel;temperature;humidity
68226;BME280;55045;49.410;11.030;2023-02-23T00:01:00;97722.03;;;6.88;100.00
68226;BME280;55045;49.410;11.030;2023-02-23T00:04:03;97716.47;;;6.77;100.00
68226;BME280;55045;49.410;11.030;2023-02-23T00:07:08;97726.47;;;6.84;100.00
68226;BME280;55045;49.410;11.030;2023-02-23T00:10:13;97722.88;;;6.88;100.00
68226;BME280;55045;49.410;11.030;2023-02-23T00:13:19;97721.97;;;6.89;100.00
68226;BME280;55045;49.410;11.030;2023-02-23T00:16:23;97722.03;;;6.88;100.00
68226;BME280;55045;49.410;11.030;2023-02-23T00:19:28;97720.47;;;6.84;100.00
68226;BME280;55045;49.410;11.030;2023-02-23T00:22:35;97714.84;;;6.74;100.00
68226;BME280;55045;49.410;11.030;2023-02-23T00:25:39;97714.38;;;6.86;100.00
68226;BME280;55045;49.410;11.030;2023-02-23T00:28:46;97708.84;;;6.74;100.00
68226;BME280;55045;49.410;11.030;2023-02-23T00:31:50;97705.91;;;6.61;100.00
68226;BME280;55045;49.410;11.030;2023-02-23T00:34:54;97714.25;;;6.68;100.00
68226;BME280;55045;49.410;11.030;2023-02-23T00:38:01;97686.63;;;6.49;100.00
68226;BME280;55045;49.410;11.030;2023-02-23T00:41:06;97717.25;;;6.57;100.00
68226;BME280;55045;49.410;11.030;2023-02-23T00:44:12;97727.28;;;6.41;100.00
68226;BME280;55045;49.410;11.030;2023-02-23T00:47:16;97733.69;;;6.54;100.00
68226;BME280;55045;49.410;11.030;2023-02-23T00:50:19;97718.94;;;6.58;100.00
68226;BME280;55045;49.410;11.030;2023-02-23T00:53:24;97725.88;;;6.56;100.00
68226;BME280;55045;49.410;11.030;2023-02-23T00:56:28;97717.25;;;6.57;100.00
68226;BME280;55045;49.410;11.030;2023-02-23T00:59:31;97725.13;;;6.52;100.00
68226;BME280;55045;49.410;11.030;2023-02-23T01:02:35;97719.34;;;6.47;100.00
68226;BME280;55045;49.410;11.030;2023-02-23T01:05:38;97725.25;;;6.49;100.00
68226;BME280;55045;49.410;11.030;2023-02-23T01:08:44;97728.47;;;6.32;100.00
68226;BME280;55045;49.410;11.030;2023-02-23T01:11:50;97733.28;;;6.42;100.00
68226;BME280;55045;49.410;11.030;2023-02-23T01:14:53;97733.06;;;6.48;100.00
68226;BME280;55045;49.410;11.030;2023-02-23T01:17:57;97736.16;;;6.34;100.00
68226;BME280;55045;49.410;11.030;2023-02-23T01:21:00;97738.19;;;6.26;100.00
68226;BME280;55045;49.410;11.030;2023-02-23T01:24:06;97732.56;;;6.38;100.00
68226;BME280;55045;49.410;11.030;2023-02-23T01:27:09;97731.09;;;6.31;100.00
68226;BME280;55045;49.410;11.030;2023-02-23T01:30:14;97734.31;;;6.14;100.00
68226;BME280;55045;49.410;11.030;2023-02-23T01:33:18;97727.75;;;6.05;100.00
68226;BME280;55045;49.410;11.030;2023-02-23T01:36:21;97717.47;;;6.05;100.00
68226;BME280;55045;49.410;11.030;2023-02-23T01:39:27;97725.28;;;6.02;100.00
68226;BME280;55045;49.410;11.030;2023-02-23T01:42:31;97730.41;;;6.04;100.00
68226;BME280;55045;49.410;11.030;2023-02-23T01:45:34;97721.94;;;6.00;100.00
68226;BME280;55045;49.410;11.030;2023-02-23T01:48:40;97726.47;;;5.94;100.00
68226;BME280;55045;49.410;11.030;2023-02-23T01:51:47;97730.56;;;5.99;100.00
68226;BME280;55045;49.410;11.030;2023-02-23T01:54:55;97724.16;;;6.10;100.00
68226;BME280;55045;49.410;11.030;2023-02-23T01:58:06;97726.09;;;6.04;100.00
68226;BME280;55045;49.410;11.030;2023-02-23T02:01:13;97732.13;;;6.03;100.00
68226;BME280;55045;49.410;11.030;2023-02-23T02:04:17;97731.50;;;5.97;100.00
68226;BME280;55045;49.410;11.030;2023-02-23T02:07:24;97729.88;;;5.94;100.00
68226;BME280;55045;49.410;11.030;2023-02-23T02:10:30;97728.31;;;5.89;100.00
68226;BME280;55045;49.410;11.030;2023-02-23T02:13:45;97728.31;;;5.89;100.00
68226;BME280;55045;49.410;11.030;2023-02-23T02:17:17;97729.72;;;5.74;100.00
68226;BME280;55045;49.410;11.030;2023-02-23T02:20:49;97724.84;;;5.66;100.00
68226;BME280;55045;49.410;11.030;2023-02-23T03:03:30;97721.38;;;5.42;100.00
68226;BME280;55045;49.410;11.030;2023-02-23T03:06:58;97720.19;;;5.53;100.00
68226;BME280;55045;49.410;11.030;2023-02-23T03:10:27;97713.97;;;5.58;100.00
68226;BME280;55045;49.410;11.030;2023-02-23T03:14:04;97714.81;;;5.59;100.00
68226;BME280;55045;49.410;11.030;2023-02-23T03:17:34;97717.84;;;5.70;100.00
68226;BME280;55045;49.410;11.030;2023-02-23T03:21:06;97721.84;;;5.54;100.00
68226;BME280;55045;49.410;11.030;2023-02-23T03:24:37;97717.91;;;5.43;100.00
68226;BME280;55045;49.410;11.030;2023-02-23T03:28:04;97719.53;;;5.46;100.00
68226;BME280;55045;49.410;11.030;2023-02-23T03:31:35;97715.94;;;5.50;100.00
68226;BME280;55045;49.410;11.030;2023-02-23T03:35:03;97730.59;;;5.48;100.00
68226;BME280;55045;49.410;11.030;2023-02-23T03:38:32;97727.47;;;5.65;100.00
68226;BME280;55045;49.410;11.030;2023-02-23T03:41:57;97724.47;;;5.52;100.00
68226;BME280;55045;49.410;11.030;2023-02-23T03:45:23;97723.38;;;5.34;100.00
68226;BME280;55045;49.410;11.030;2023-02-23T03:48:47;97724.44;;;5.27;100.00
68226;BME280;55045;49.410;11.030;2023-02-23T03:52:13;97729.59;;;5.27;100.00
68226;BME280;55045;49.410;11.030;2023-02-23T03:55:39;97732.28;;;5.24;100.00
68226;BME280;55045;49.410;11.030;2023-02-23T03:59:03;97726.34;;;5.22;100.00
68226;BME280;55045;49.410;11.030;2023-02-23T04:02:26;97726.59;;;5.14;100.00
68226;BME280;55045;49.410;11.030;2023-02-23T04:05:49;97728.09;;;5.20;100.00
68226;BME280;55045;49.410;11.030;2023-02-23T04:09:12;97730.91;;;5.14;100.00
68226;BME280;55045;49.410;11.030;2023-02-23T04:12:39;97733.34;;;5.17;100.00
68226;BME280;55045;49.410;11.030;2023-02-23T04:16:05;97732.09;;;5.04;100.00
68226;BME280;55045;49.410;11.030;2023-02-23T04:19:08;97719.47;;;4.96;100.00
68226;BME280;55045;49.410;11.030;2023-02-23T04:22:11;97728.91;;;4.96;100.00
68226;BME280;55045;49.410;11.030;2023-02-23T04:25:15;97727.72;;;5.06;100.00
68226;BME280;55045;49.410;11.030;2023-02-23T04:28:22;97725.69;;;4.89;100.00
68226;BME280;55045;49.410;11.030;2023-02-23T04:34:29;97741.75;;;4.96;100.00
68226;BME280;55045;49.410;11.030;2023-02-23T04:37:32;97732.28;;;4.70;100.00
68226;BME280;55045;49.410;11.030;2023-02-23T04:40:36;97734.44;;;4.55;100.00
68226;BME280;55045;49.410;11.030;2023-02-23T04:43:39;97741.09;;;4.62;100.00
68226;BME280;55045;49.410;11.030;2023-02-23T04:46:42;97746.19;;;4.64;100.00
68226;BME280;55045;49.410;11.030;2023-02-23T04:49:47;97744.63;;;4.58;100.00
68226;BME280;55045;49.410;11.030;2023-02-23T04:52:50;97748.84;;;4.61;100.00
68226;BME280;55045;49.410;11.030;2023-02-23T04:55:54;97746.28;;;4.59;100.00
68226;BME280;55045;49.410;11.030;2023-02-23T04:58:57;97748.03;;;4.59;100.00
68226;BME280;55045;49.410;11.030;2023-02-23T05:02:01;97743.19;;;4.50;100.00
68226;BME280;55045;49.410;11.030;2023-02-23T05:05:07;97748.91;;;4.58;100.00
68226;BME280;55045;49.410;11.030;2023-02-23T05:08:10;97750.91;;;4.48;100.00
68226;BME280;55045;49.410;11.030;2023-02-23T05:11:14;97757.25;;;4.66;100.00
68226;BME280;55045;49.410;11.030;2023-02-23T05:14:17;97746.50;;;4.53;100.00
68226;BME280;55045;49.410;11.030;2023-02-23T05:17:20;97748.72;;;4.36;100.00
68226;BME280;55045;49.410;11.030;2023-02-23T05:20:25;97751.03;;;4.45;100.00
68226;BME280;55045;49.410;11.030;2023-02-23T05:23:28;97747.72;;;4.42;100.00
68226;BME280;55045;49.410;11.030;2023-02-23T05:26:32;97719.63;;;4.36;100.00
68226;BME280;55045;49.410;11.030;2023-02-23T05:29:35;97735.28;;;4.56;100.00
68226;BME280;55045;49.410;11.030;2023-02-23T05:32:38;97748.19;;;4.54;100.00
68226;BME280;55045;49.410;11.030;2023-02-23T05:35:43;97743.13;;;4.79;100.00
68226;BME280;55045;49.410;11.030;2023-02-23T05:38:46;97751.31;;;4.64;100.00
68226;BME280;55045;49.410;11.030;2023-02-23T05:41:50;97746.88;;;4.69;100.00
68226;BME280;55045;49.410;11.030;2023-02-23T05:44:53;97743.84;;;4.56;100.00
68226;BME280;55045;49.410;11.030;2023-02-23T05:47:56;97748.59;;;4.69;100.00
68226;BME280;55045;49.410;11.030;2023-02-23T05:51:02;97746.28;;;4.61;100.00
68226;BME280;55045;49.410;11.030;2023-02-23T05:54:06;97742.88;;;4.60;100.00
68226;BME280;55045;49.410;11.030;2023-02-23T05:57:09;97742.03;;;4.60;100.00
68226;BME280;55045;49.410;11.030;2023-02-23T06:00:12;97752.31;;;4.60;100.00
68226;BME280;55045;49.410;11.030;2023-02-23T06:03:16;97757.97;;;4.70;100.00
68226;BME280;55045;49.410;11.030;2023-02-23T06:06:21;97769.13;;;4.69;100.00
68226;BME280;55045;49.410;11.030;2023-02-23T06:09:26;97741.22;;;4.58;100.00
68226;BME280;55045;49.410;11.030;2023-02-23T06:12:29;97757.69;;;4.80;100.00
68226;BME280;55045;49.410;11.030;2023-02-23T06:15:32;97754.06;;;4.58;100.00
68226;BME280;55045;49.410;11.030;2023-02-23T06:18:36;97771.72;;;4.69;100.00
68226;BME280;55045;49.410;11.030;2023-02-23T06:21:40;97769.97;;;4.71;100.00
68226;BME280;55045;49.410;11.030;2023-02-23T06:24:43;97778.34;;;4.76;100.00
68226;BME280;55045;49.410;11.030;2023-02-23T06:27:47;97774.16;;;4.73;100.00
68226;BME280;55045;49.410;11.030;2023-02-23T06:30:50;97787.00;;;4.73;100.00
68226;BME280;55045;49.410;11.030;2023-02-23T06:33:54;97786.28;;;4.68;100.00
68226;BME280;55045;49.410;11.030;2023-02-23T06:36:59;97782.66;;;4.75;100.00
68226;BME280;55045;49.410;11.030;2023-02-23T06:40:02;97788.50;;;4.80;100.00
68226;BME280;55045;49.410;11.030;2023-02-23T06:43:06;97789.25;;;4.84;100.00
68226;BME280;55045;49.410;11.030;2023-02-23T06:46:09;97788.41;;;4.83;100.00
68226;BME280;55045;49.410;11.030;2023-02-23T06:49:12;97789.13;;;4.87;100.00
68226;BME280;55045;49.410;11.030;2023-02-23T06:52:19;97787.47;;;4.86;100.00
68226;BME280;55045;49.410;11.030;2023-02-23T06:55:22;97799.03;;;5.01;100.00
68226;BME280;55045;49.410;11.030;2023-02-23T06:58:26;97803.78;;;5.13;100.00
68226;BME280;55045;49.410;11.030;2023-02-23T07:01:29;97801.88;;;5.18;100.00
68226;BME280;55045;49.410;11.030;2023-02-23T07:04:33;97801.69;;;5.24;100.00
68226;BME280;55045;49.410;11.030;2023-02-23T07:07:37;97808.13;;;5.37;100.00
68226;BME280;55045;49.410;11.030;2023-02-23T07:10:41;97804.66;;;5.38;100.00
68226;BME280;55045;49.410;11.030;2023-02-23T07:13:44;97808.81;;;5.42;100.00
68226;BME280;55045;49.410;11.030;2023-02-23T07:16:47;97814.66;;;5.47;100.00
68226;BME280;55045;49.410;11.030;2023-02-23T07:19:51;97811.94;;;5.52;100.00
68226;BME280;55045;49.410;11.030;2023-02-23T07:22:55;97816.81;;;5.60;100.00
68226;BME280;55045;49.410;11.030;2023-02-23T07:25:58;97810.88;;;5.58;100.00
68226;BME280;55045;49.410;11.030;2023-02-23T07:29:02;97815.03;;;5.62;100.00
68226;BME280;55045;49.410;11.030;2023-02-23T07:32:06;97799.09;;;5.50;100.00
68226;BME280;55045;49.410;11.030;2023-02-23T07:35:09;97809.50;;;5.47;100.00
68226;BME280;55045;49.410;11.030;2023-02-23T07:38:14;97822.75;;;5.62;100.00
68226;BME280;55045;49.410;11.030;2023-02-23T07:41:20;97805.84;;;5.55;100.00
68226;BME280;55045;49.410;11.030;2023-02-23T07:44:23;97816.44;;;5.70;100.00
68226;BME280;55045;49.410;11.030;2023-02-23T07:47:26;97824.03;;;5.75;100.00
68226;BME280;55045;49.410;11.030;2023-02-23T07:50:32;97820.44;;;5.79;100.00
68226;BME280;55045;49.410;11.030;2023-02-23T07:53:36;97820.34;;;5.82;100.00
68226;BME280;55045;49.410;11.030;2023-02-23T07:56:39;97825.41;;;5.85;100.00
68226;BME280;55045;49.410;11.030;2023-02-23T07:59:42;97825.41;;;5.85;100.00
68226;BME280;55045;49.410;11.030;2023-02-23T08:02:46;97823.44;;;5.93;100.00
68226;BME280;55045;49.410;11.030;2023-02-23T08:05:49;97822.25;;;6.03;100.00
68226;BME280;55045;49.410;11.030;2023-02-23T08:08:54;97826.38;;;6.07;100.00
68226;BME280;55045;49.410;11.030;2023-02-23T08:11:57;97821.94;;;6.11;100.00
68226;BME280;55045;49.410;11.030;2023-02-23T08:15:01;97833.72;;;6.18;100.00
68226;BME280;55045;49.410;11.030;2023-02-23T08:18:06;97840.94;;;6.32;100.00
68226;BME280;55045;49.410;11.030;2023-02-23T08:21:10;97839.00;;;6.39;100.00
68226;BME280;55045;49.410;11.030;2023-02-23T08:24:15;97838.94;;;6.40;100.00
68226;BME280;55045;49.410;11.030;2023-02-23T08:27:19;97835.72;;;6.35;100.00
68226;BME280;55045;49.410;11.030;2023-02-23T08:30:23;97840.69;;;6.40;100.00
68226;BME280;55045;49.410;11.030;2023-02-23T08:33:26;97831.41;;;6.35;100.00
68226;BME280;55045;49.410;11.030;2023-02-23T08:36:29;97841.41;;;6.43;100.00
68226;BME280;55045;49.410;11.030;2023-02-23T08:39:34;97840.19;;;6.53;100.00
68226;BME280;55045;49.410;11.030;2023-02-23T08:42:37;97840.09;;;6.56;100.00
68226;BME280;55045;49.410;11.030;2023-02-23T08:45:40;97846.06;;;6.57;100.00
68226;BME280;55045;49.410;11.030;2023-02-23T08:48:43;97842.41;;;6.62;100.00
68226;BME280;55045;49.410;11.030;2023-02-23T08:51:47;97839.50;;;6.72;100.00
68226;BME280;55045;49.410;11.030;2023-02-23T08:54:52;97842.78;;;6.77;100.00
68226;BME280;55045;49.410;11.030;2023-02-23T08:57:56;97847.63;;;6.84;100.00
68226;BME280;55045;49.410;11.030;2023-02-23T09:01:00;97848.25;;;6.91;100.00
68226;BME280;55045;49.410;11.030;2023-02-23T09:04:04;97844.25;;;6.82;100.00
68226;BME280;55045;49.410;11.030;2023-02-23T09:07:08;97838.28;;;6.82;100.00
68226;BME280;55045;49.410;11.030;2023-02-23T09:10:15;97843.41;;;6.82;100.00
68226;BME280;55045;49.410;11.030;2023-02-23T09:13:20;97851.94;;;6.84;100.00
68226;BME280;55045;49.410;11.030;2023-02-23T09:16:23;97851.91;;;6.85;100.00
68226;BME280;55045;49.410;11.030;2023-02-23T09:19:27;97837.56;;;6.78;100.00
68226;BME280;55045;49.410;11.030;2023-02-23T09:22:30;97855.19;;;6.89;100.00
68226;BME280;55045;49.410;11.030;2023-02-23T09:25:40;97846.69;;;6.87;100.00
68226;BME280;55045;49.410;11.030;2023-02-23T09:28:45;97858.44;;;6.94;100.00
68226;BME280;55045;49.410;11.030;2023-02-23T09:31:48;97847.28;;;6.93;100.00
68226;BME280;55045;49.410;11.030;2023-02-23T09:34:54;97857.97;;;7.06;100.00
68226;BME280;55045;49.410;11.030;2023-02-23T09:37:57;97856.47;;;7.22;100.00
68226;BME280;55045;49.410;11.030;2023-02-23T09:41:02;97783.66;;;6.94;100.00
68226;BME280;55045;49.410;11.030;2023-02-23T09:44:15;97855.56;;;7.45;100.00
68226;BME280;55045;49.410;11.030;2023-02-23T09:47:31;97841.06;;;7.43;100.00
68226;BME280;55045;49.410;11.030;2023-02-23T09:50:41;97848.06;;;7.61;100.00
68226;BME280;55045;49.410;11.030;2023-02-23T09:53:48;97842.91;;;7.61;100.00
68226;BME280;55045;49.410;11.030;2023-02-23T09:56:55;97838.63;;;7.60;100.00
68226;BME280;55045;49.410;11.030;2023-02-23T09:59:59;97830.25;;;7.75;100.00
68226;BME280;55045;49.410;11.030;2023-02-23T10:03:11;97844.47;;;7.86;100.00
68226;BME280;55045;49.410;11.030;2023-02-23T10:06:19;97842.09;;;8.01;100.00
68226;BME280;55045;49.410;11.030;2023-02-23T10:09:31;97838.97;;;7.93;100.00
68226;BME280;55045;49.410;11.030;2023-02-23T10:12:47;97840.47;;;7.99;100.00
68226;BME280;55045;49.410;11.030;2023-02-23T10:15:56;97842.59;;;8.09;100.00
68226;BME280;55045;49.410;11.030;2023-02-23T10:19:08;97847.63;;;8.13;100.00
68226;BME280;55045;49.410;11.030;2023-02-23T10:22:15;97841.81;;;8.28;100.00
68226;BME280;55045;49.410;11.030;2023-02-23T10:25:22;97831.06;;;8.39;100.00
68226;BME280;55045;49.410;11.030;2023-02-23T10:28:32;97817.22;;;8.19;100.00
68226;BME280;55045;49.410;11.030;2023-02-23T10:34:29;97841.38;;;8.39;100.00
68226;BME280;55045;49.410;11.030;2023-02-23T10:37:33;97840.09;;;8.28;100.00
68226;BME280;55045;49.410;11.030;2023-02-23T10:40:36;97845.56;;;8.41;100.00
68226;BME280;55045;49.410;11.030;2023-02-23T10:43:39;97853.75;;;8.30;100.00
68226;BME280;55045;49.410;11.030;2023-02-23T10:46:43;97855.06;;;8.41;100.00
68226;BME280;55045;49.410;11.030;2023-02-23T10:49:51;97855.78;;;8.44;100.00
68226;BME280;55045;49.410;11.030;2023-02-23T10:52:58;97821.47;;;8.20;100.00
68226;BME280;55045;49.410;11.030;2023-02-23T10:56:05;97840.41;;;8.41;100.00
68226;BME280;55045;49.410;11.030;2023-02-23T10:59:17;97851.53;;;8.62;100.00
68226;BME280;55045;49.410;11.030;2023-02-23T11:02:23;97839.38;;;8.64;100.00
68226;BME280;55045;49.410;11.030;2023-02-23T11:05:32;97847.13;;;8.64;100.00
68226;BME280;55045;49.410;11.030;2023-02-23T11:08:37;97840.66;;;8.74;100.00
68226;BME280;55045;49.410;11.030;2023-02-23T11:11:54;97843.31;;;8.73;100.00
68226;BME280;55045;49.410;11.030;2023-02-23T11:14:58;97836.53;;;8.70;100.00
68226;BME280;55045;49.410;11.030;2023-02-23T11:18:23;97843.59;;;8.85;100.00
68226;BME280;55045;49.410;11.030;2023-02-23T11:21:31;97838.47;;;8.84;100.00
68226;BME280;55045;49.410;11.030;2023-02-23T11:24:38;97837.38;;;8.89;100.00
68226;BME280;55045;49.410;11.030;2023-02-23T11:27:46;97839.25;;;8.86;100.00
68226;BME280;55045;49.410;11.030;2023-02-23T11:30:52;97828.78;;;8.89;100.00
68226;BME280;55045;49.410;11.030;2023-02-23T11:33:56;97824.97;;;8.96;100.00
68226;BME280;55045;49.410;11.030;2023-02-23T11:37:05;97824.00;;;8.99;100.00
68226;BME280;55045;49.410;11.030;2023-02-23T11:40:19;97824.44;;;8.89;100.00
68226;BME280;55045;49.410;11.030;2023-02-23T11:43:23;97811.28;;;8.94;100.00
68226;BME280;55045;49.410;11.030;2023-02-23T11:46:27;97810.50;;;9.11;100.00
68226;BME280;55045;49.410;11.030;2023-02-23T11:49:32;97790.38;;;8.99;100.00
68226;BME280;55045;49.410;11.030;2023-02-23T11:52:42;97804.50;;;9.28;100.00
68226;BME280;55045;49.410;11.030;2023-02-23T11:55:47;97797.16;;;9.20;100.00
68226;BME280;55045;49.410;11.030;2023-02-23T11:58:53;97800.69;;;9.17;100.00
68226;BME280;55045;49.410;11.030;2023-02-23T12:02:04;97800.41;;;9.23;100.00
68226;BME280;55045;49.410;11.030;2023-02-23T12:05:15;97793.25;;;9.29;100.00
68226;BME280;55045;49.410;11.030;2023-02-23T12:08:30;97792.56;;;9.25;100.00
68226;BME280;55045;49.410;11.030;2023-02-23T12:11:39;97788.03;;;9.30;100.00
68226;BME280;55045;49.410;11.030;2023-02-23T12:14:48;97799.75;;;9.37;100.00
68226;BME280;55045;49.410;11.030;2023-02-23T12:17:56;97799.50;;;9.24;100.00
68226;BME280;55045;49.410;11.030;2023-02-23T12:21:12;97792.34;;;9.30;100.00
68226;BME280;55045;49.410;11.030;2023-02-23T12:24:27;97791.53;;;9.46;100.00
68226;BME280;55045;49.410;11.030;2023-02-23T12:27:36;97787.72;;;9.36;100.00
68226;BME280;55045;49.410;11.030;2023-02-23T12:30:45;97788.47;;;9.38;100.00
68226;BME280;55045;49.410;11.030;2023-02-23T12:33:54;97785.44;;;9.30;100.00
68226;BME280;55045;49.410;11.030;2023-02-23T12:37:02;97779.41;;;9.47;100.00
68226;BME280;55045;49.410;11.030;2023-02-23T12:40:17;97776.69;;;9.50;100.00
68226;BME280;55045;49.410;11.030;2023-02-23T12:43:27;97769.00;;;9.66;100.00
68226;BME280;55045;49.410;11.030;2023-02-23T12:46:34;97767.16;;;9.68;100.00
68226;BME280;55045;49.410;11.030;2023-02-23T12:49:48;97761.22;;;9.66;100.00
68226;BME280;55045;49.410;11.030;2023-02-23T12:52:56;97755.50;;;9.59;100.00
68226;BME280;55045;49.410;11.030;2023-02-23T12:56:13;97758.41;;;9.70;100.00
68226;BME280;55045;49.410;11.030;2023-02-23T12:59:50;97752.88;;;9.61;100.00
68226;BME280;55045;49.410;11.030;2023-02-23T13:03:25;97757.72;;;9.67;100.00
68226;BME280;55045;49.410;11.030;2023-02-23T13:06:33;97752.47;;;9.68;100.00
68226;BME280;55045;49.410;11.030;2023-02-23T13:09:49;97754.69;;;9.76;100.00
68226;BME280;55045;49.410;11.030;2023-02-23T13:13:02;97748.75;;;9.74;100.00
68226;BME280;55045;49.410;11.030;2023-02-23T13:16:17;97755.28;;;9.64;100.00
68226;BME280;55045;49.410;11.030;2023-02-23T13:19:29;97747.16;;;9.54;100.00
68226;BME280;55045;49.410;11.030;2023-02-23T13:22:39;97742.13;;;9.51;100.00
68226;BME280;55045;49.410;11.030;2023-02-23T13:25:49;97744.66;;;9.52;100.00
68226;BME280;55045;49.410;11.030;2023-02-23T13:29:01;97736.13;;;9.50;100.00
68226;BME280;55045;49.410;11.030;2023-02-23T13:32:10;97724.97;;;9.48;100.00
68226;BME280;55045;49.410;11.030;2023-02-23T13:35:16;97738.22;;;9.60;100.00
68226;BME280;55045;49.410;11.030;2023-02-23T13:38:27;97746.00;;;9.60;100.00
68226;BME280;55045;49.410;11.030;2023-02-23T13:41:36;97737.63;;;9.55;100.00
68226;BME280;55045;49.410;11.030;2023-02-23T13:44:45;97738.16;;;9.61;100.00
68226;BME280;55045;49.410;11.030;2023-02-23T13:47:55;97738.00;;;9.64;100.00
68226;BME280;55045;49.410;11.030;2023-02-23T13:51:05;97732.66;;;9.67;100.00
68226;BME280;55045;49.410;11.030;2023-02-23T13:54:22;97715.09;;;9.57;100.00
68226;BME280;55045;49.410;11.030;2023-02-23T13:57:26;97720.72;;;9.65;100.00
68226;BME280;55045;49.410;11.030;2023-02-23T14:00:32;97734.31;;;9.86;100.00
68226;BME280;55045;49.410;11.030;2023-02-23T14:03:44;97737.28;;;9.78;100.00
68226;BME280;55045;49.410;11.030;2023-02-23T14:06:52;97733.72;;;9.80;100.00
68226;BME280;55045;49.410;11.030;2023-02-23T14:09:58;97728.03;;;9.74;100.00
68226;BME280;55045;49.410;11.030;2023-02-23T14:13:22;97740.97;;;9.57;100.00
68226;BME280;55045;49.410;11.030;2023-02-23T14:16:28;97740.81;;;9.60;100.00
68226;BME280;55045;49.410;11.030;2023-02-23T14:19:35;97737.34;;;9.61;100.00
68226;BME280;55045;49.410;11.030;2023-02-23T14:26:39;97736.56;;;9.41;100.00
68226;BME280;55045;49.410;11.030;2023-02-23T14:29:43;97729.84;;;9.37;100.00
68226;BME280;55045;49.410;11.030;2023-02-23T14:32:48;97738.25;;;9.42;100.00
68226;BME280;55045;49.410;11.030;2023-02-23T14:35:54;97740.22;;;9.37;100.00
68226;BME280;55045;49.410;11.030;2023-02-23T14:38:59;97745.06;;;9.26;100.00
68226;BME280;55045;49.410;11.030;2023-02-23T14:42:05;97742.03;;;9.18;100.00
68226;BME280;55045;49.410;11.030;2023-02-23T14:45:17;97720.81;;;9.11;100.00
68226;BME280;55045;49.410;11.030;2023-02-23T14:48:22;97736.75;;;9.19;100.00
68226;BME280;55045;49.410;11.030;2023-02-23T14:51:37;97737.63;;;9.20;100.00
68226;BME280;55045;49.410;11.030;2023-02-23T14:54:46;97737.47;;;9.23;100.00
68226;BME280;55045;49.410;11.030;2023-02-23T14:57:49;97729.25;;;9.15;100.00
68226;BME280;55045;49.410;11.030;2023-02-23T15:00:55;97736.09;;;9.16;100.00
68226;BME280;55045;49.410;11.030;2023-02-23T15:04:08;97737.00;;;9.15;100.00
68226;BME280;55045;49.410;11.030;2023-02-23T15:07:14;97733.56;;;9.14;100.00
68226;BME280;55045;49.410;11.030;2023-02-23T15:10:29;97736.09;;;9.16;100.00
68226;BME280;55045;49.410;11.030;2023-02-23T15:13:34;97720.09;;;9.08;100.00
68226;BME280;55045;49.410;11.030;2023-02-23T15:16:37;97735.81;;;9.22;100.00
68226;BME280;55045;49.410;11.030;2023-02-23T15:19:43;97738.06;;;9.11;100.00
68226;BME280;55045;49.410;11.030;2023-02-23T15:22:50;97740.78;;;9.08;100.00
68226;BME280;55045;49.410;11.030;2023-02-23T15:25:55;97737.28;;;9.09;100.00
68226;BME280;55045;49.410;11.030;2023-02-23T15:29:05;97744.84;;;9.13;100.00
68226;BME280;55045;49.410;11.030;2023-02-23T15:32:11;97738.06;;;9.11;100.00
68226;BME280;55045;49.410;11.030;2023-02-23T15:35:17;97736.09;;;9.16;100.00
68226;BME280;55045;49.410;11.030;2023-02-23T15:38:22;97732.81;;;9.12;100.00
68226;BME280;55045;49.410;11.030;2023-02-23T15:41:44;97739.31;;;9.21;100.00
68226;BME280;55045;49.410;11.030;2023-02-23T15:44:55;97733.13;;;9.23;100.00
68226;BME280;55045;49.410;11.030;2023-02-23T15:48:02;97740.44;;;9.15;100.00
68226;BME280;55045;49.410;11.030;2023-02-23T15:51:20;97726.19;;;9.07;100.00
68226;BME280;55045;49.410;11.030;2023-02-23T15:54:27;97739.44;;;9.18;100.00
68226;BME280;55045;49.410;11.030;2023-02-23T15:57:32;97739.44;;;9.18;100.00
68226;BME280;55045;49.410;11.030;2023-02-23T16:00:37;97734.41;;;9.15;100.00
68226;BME280;55045;49.410;11.030;2023-02-23T16:03:58;97713.31;;;9.05;100.00
68226;BME280;55045;49.410;11.030;2023-02-23T16:07:12;97740.13;;;9.21;100.00
68226;BME280;55045;49.410;11.030;2023-02-23T16:10:22;97748.09;;;9.17;100.00
68226;BME280;55045;49.410;11.030;2023-02-23T16:13:25;97739.16;;;9.24;100.00
68226;BME280;55045;49.410;11.030;2023-02-23T16:16:33;97732.47;;;9.20;100.00
68226;BME280;55045;49.410;11.030;2023-02-23T16:19:37;97708.06;;;9.07;100.00
68226;BME280;55045;49.410;11.030;2023-02-23T16:22:44;97730.31;;;9.11;100.00
68226;BME280;55045;49.410;11.030;2023-02-23T16:25:51;97738.50;;;9.19;100.00
68226;BME280;55045;49.410;11.030;2023-02-23T16:28:57;97731.81;;;9.15;100.00
68226;BME280;55045;49.410;11.030;2023-02-23T16:34:31;97725.22;;;9.09;100.00
68226;BME280;55045;49.410;11.030;2023-02-23T16:37:54;97727.84;;;9.08;100.00
68226;BME280;55045;49.410;11.030;2023-02-23T16:40:57;97661.44;;;8.55;100.00
68226;BME280;55045;49.410;11.030;2023-02-23T16:44:03;97744.97;;;8.93;100.00
68226;BME280;55045;49.410;11.030;2023-02-23T16:47:31;97728.16;;;9.02;100.00
68226;BME280;55045;49.410;11.030;2023-02-23T16:50:38;97721.44;;;8.98;100.00
68226;BME280;55045;49.410;11.030;2023-02-23T16:53:42;97734.75;;;8.90;100.00
68226;BME280;55045;49.410;11.030;2023-02-23T16:56:46;97722.28;;;8.62;100.00
68226;BME280;55045;49.410;11.030;2023-02-23T16:59:50;97725.16;;;8.56;100.00
68226;BME280;55045;49.410;11.030;2023-02-23T17:02:55;97750.88;;;8.59;100.00
68226;BME280;55045;49.410;11.030;2023-02-23T17:06:03;97751.56;;;8.44;100.00
68226;BME280;55045;49.410;11.030;2023-02-23T17:09:06;97758.25;;;8.48;100.00
68226;BME280;55045;49.410;11.030;2023-02-23T17:12:10;97754.00;;;8.47;100.00
68226;BME280;55045;49.410;11.030;2023-02-23T17:15:16;97747.03;;;8.49;100.00